Time;durP1;ratioP1;P1;durP2;ratioP2;P2;SDS_P1;SDS_P2;PMS_P1;PMS_P2;Temp;Humidity;BMP_temperature;BMP_pressure;BME280_temperature;BME280_humidity;BME280_pressure;Samples;Min_cycle;Max_cycle;Signal;HPM_P1;HPM_P2
2021/09/12 00:09:57;;;;;;;4.63;2.00;;;;;;;;;;21166034;28;20054;-59
2021/09/12 00:20:00;;;;;;;6.68;1.70;;;;;;;;;;21165290;28;20096;-62
2021/09/12 00:30:06;;;;;;;3.75;1.60;;;;;;;;;;21166053;28;20517;-60
2021/09/12 00:40:10;;;;;;;5.07;1.90;;;;;;;;;;21163567;28;20388;-62
2021/09/12 00:50:13;;;;;;;;;;;;;;;;;;21164659;28;20040;-59
2021/09/12 01:00:16;;;;;;;4.82;2.20;;;;;;;;;;21162169;28;19920;-49
2021/09/12 01:10:18;;;;;;;;;;;;;;;;;;21163614;28;20616;-48
2021/09/12 01:20:22;;;;;;;4.30;1.60;;;;;;;;;;21161651;28;19920;-49
2021/09/12 01:30:28;;;;;;;5.03;2.10;;;;;;;;;;21161834;28;20066;-49
2021/09/12 01:40:34;;;;;;;4.05;1.70;;;;;;;;;;21177225;28;20047;-49
2021/09/12 01:50:39;;;;;;;6.68;1.92;;;;;;;;;;21176693;28;20072;-50
2021/09/12 02:00:47;;;;;;;3.35;2.33;;;;;;;;;;21176123;28;20411;-48
2021/09/12 02:10:57;;;;;;;2.25;1.42;;;;;;;;;;21174928;28;20057;-52
2021/09/12 02:21:17;;;;;;;10.05;2.75;;;;;;;;;;21174490;28;20124;-50
2021/09/12 02:31:39;;;;;;;2.90;1.48;;;;;;;;;;21174441;28;20051;-49
2021/09/12 02:42:01;;;;;;;3.30;1.60;;;;;;;;;;21157826;28;20506;-47
2021/09/12 02:52:22;;;;;;;2.58;1.55;;;;;;;;;;21171691;28;20044;-47
2021/09/12 03:02:44;;;;;;;3.45;1.60;;;;;;;;;;21170332;28;20062;-50
2021/09/12 03:13:05;;;;;;;5.07;1.70;;;;;;;;;;21170578;28;20044;-47
2021/09/12 03:23:27;;;;;;;2.60;1.63;;;;;;;;;;21169195;28;20048;-49
2021/09/12 03:33:48;;;;;;;3.88;1.45;;;;;;;;;;21169618;28;20400;-47
2021/09/12 03:44:06;;;;;;;3.38;1.58;;;;;;;;;;21167838;28;20070;-49
2021/09/12 03:54:28;;;;;;;3.45;1.50;;;;;;;;;;21167585;28;20052;-49
2021/09/12 04:04:39;;;;;;;2.50;1.33;;;;;;;;;;21166979;28;20484;-59
2021/09/12 04:14:47;;;;;;;2.95;1.50;;;;;;;;;;21165839;28;20116;-61
2021/09/12 04:24:55;;;;;;;2.70;1.63;;;;;;;;;;21165516;28;20075;-63
2021/09/12 04:35:16;;;;;;;2.92;1.52;;;;;;;;;;21164271;28;20058;-61
2021/09/12 04:45:38;;;;;;;2.42;1.33;;;;;;;;;;21163194;28;20047;-61
2021/09/12 04:55:43;;;;;;;4.18;1.77;;;;;;;;;;21163209;28;20075;-50
2021/09/12 05:05:49;;;;;;;4.53;1.70;;;;;;;;;;21163455;28;20543;-49
2021/09/12 05:15:58;;;;;;;3.90;1.77;;;;;;;;;;21179814;28;20471;-54
2021/09/12 05:26:05;;;;;;;3.83;1.70;;;;;;;;;;21178775;28;20048;-49
2021/09/12 05:36:14;;;;;;;5.82;1.58;;;;;;;;;;21177872;28;20049;-49
2021/09/12 05:46:18;;;;;;;2.10;1.40;;;;;;;;;;21176739;28;20507;-49
2021/09/12 05:56:21;;;;;;;2.27;1.40;;;;;;;;;;21175647;28;20048;-49
2021/09/12 06:06:26;;;;;;;5.45;1.58;;;;;;;;;;21175275;28;20047;-49
2021/09/12 06:16:29;;;;;;;2.78;1.60;;;;;;;;;;21174043;28;20100;-59
2021/09/12 06:26:33;;;;;;;4.10;1.90;;;;;;;;;;21173824;28;20101;-49
2021/09/12 06:36:37;;;;;;;3.83;2.10;;;;;;;;;;21155123;28;20047;-49
2021/09/12 06:46:43;;;;;;;3.55;1.92;;;;;;;;;;21171590;28;20043;-51
2021/09/12 06:56:50;;;;;;;3.00;1.80;;;;;;;;;;21171207;28;20048;-50
2021/09/12 07:07:01;;;;;;;5.05;2.75;;;;;;;;;;21170741;28;20052;-50
2021/09/12 07:17:06;;;;;;;5.20;2.47;;;;;;;;;;21169741;28;20043;-53
2021/09/12 07:27:10;;;;;;;2.78;1.63;;;;;;;;;;21168875;28;20047;-48
2021/09/12 07:37:17;;;;;;;3.92;1.55;;;;;;;;;;21166972;28;20052;-48
2021/09/12 07:47:29;;;;;;;2.57;1.30;;;;;;;;;;21167621;28;20048;-48
2021/09/12 07:57:33;;;;;;;2.60;1.70;;;;;;;;;;21167229;28;20047;-50
2021/09/12 08:07:39;;;;;;;1.98;1.20;;;;;;;;;;21166109;28;20055;-50
2021/09/12 08:17:42;;;;;;;4.57;1.40;;;;;;;;;;21166095;28;20051;-52
2021/09/12 08:27:46;;;;;;;2.83;1.23;;;;;;;;;;21165001;28;20079;-48
2021/09/12 08:37:50;;;;;;;3.78;1.40;;;;;;;;;;21164607;28;20404;-52
2021/09/12 08:47:53;;;;;;;;;;;;;;;;;;21163606;28;20498;-50
2021/09/12 08:58:02;;;;;;;3.78;1.77;;;;;;;;;;21163025;28;20335;-49
2021/09/12 09:08:10;;;;;;;3.75;1.80;;;;;;;;;;21162248;28;20077;-50
2021/09/12 09:18:14;;;;;;;4.00;1.70;;;;;;;;;;21162627;28;20541;-61
2021/09/12 09:28:19;;;;;;;3.05;1.40;;;;;;;;;;21161173;28;20520;-50
2021/09/12 09:38:26;;;;;;;4.55;1.33;;;;;;;;;;21160312;28;20051;-49
2021/09/12 09:48:36;;;;;;;2.75;1.33;;;;;;;;;;21144788;28;20462;-50
2021/09/12 09:58:43;;;;;;;3.25;2.08;;;;;;;;;;21171013;28;20052;-50
2021/09/12 10:08:50;;;;;;;3.97;2.20;;;;;;;;;;21175189;28;20384;-49
2021/09/12 10:19:00;;;;;;;3.80;2.30;;;;;;;;;;21157847;28;20043;-50
2021/09/12 10:29:04;;;;;;;4.57;2.30;;;;;;;;;;21155280;28;20532;-49
2021/09/12 10:39:24;;;;;;;3.15;2.17;;;;;;;;;;21172393;28;20055;-51
2021/09/12 10:49:32;;;;;;;4.88;2.33;;;;;;;;;;21173269;28;20044;-50
2021/09/12 10:59:36;;;;;;;3.83;2.45;;;;;;;;;;21171342;28;20058;-50
2021/09/12 11:09:46;;;;;;;3.05;1.85;;;;;;;;;;21170201;28;20059;-49
2021/09/12 11:19:52;;;;;;;6.18;2.55;;;;;;;;;;21169995;28;20048;-51
2021/09/12 11:29:55;;;;;;;7.47;2.53;;;;;;;;;;21151084;28;20044;-49
2021/09/12 11:40:00;;;;;;;3.03;1.88;;;;;;;;;;21167323;28;20506;-49
2021/09/12 11:50:10;;;;;;;7.47;2.58;;;;;;;;;;21159730;28;20122;-48
2021/09/12 12:00:13;;;;;;;3.72;2.53;;;;;;;;;;21155948;28;20069;-48
2021/09/12 12:10:30;;;;;;;4.55;2.60;;;;;;;;;;21162007;28;20045;-51
2021/09/12 12:20:33;;;;;;;10.88;2.08;;;;;;;;;;21153500;27;20043;-51
2021/09/12 12:30:35;;;;;;;5.85;3.08;;;;;;;;;;21164088;28;20044;-51
2021/09/12 12:40:42;;;;;;;8.63;4.85;;;;;;;;;;21163336;28;20101;-48
2021/09/12 12:50:46;;;;;;;5.65;2.50;;;;;;;;;;21163072;28;20495;-48
2021/09/12 13:00:50;;;;;;;6.18;2.17;;;;;;;;;;21162200;28;20051;-53
2021/09/12 13:10:54;;;;;;;11.95;8.90;;;;;;;;;;21162067;28;20047;-50
2021/09/12 13:20:59;;;;;;;5.15;2.50;;;;;;;;;;21161944;28;20048;-51
2021/09/12 13:31:04;;;;;;;5.07;2.85;;;;;;;;;;21168972;28;20043;-53
2021/09/12 13:41:08;;;;;;;6.88;3.33;;;;;;;;;;21177354;28;20058;-52
2021/09/12 13:51:12;;;;;;;8.88;2.80;;;;;;;;;;21177112;28;20043;-51
2021/09/12 14:01:14;;;;;;;8.80;2.67;;;;;;;;;;21175368;28;20136;-50
2021/09/12 14:11:17;;;;;;;15.82;4.20;;;;;;;;;;21174834;28;20134;-50
2021/09/12 14:21:21;;;;;;;7.18;3.33;;;;;;;;;;21173678;28;20044;-49
2021/09/12 14:31:23;;;;;;;13.73;6.30;;;;;;;;;;21173036;28;20043;-51
2021/09/12 14:41:27;;;;;;;8.13;2.95;;;;;;;;;;21171801;28;20518;-51
2021/09/12 14:51:29;;;;;;;8.10;3.28;;;;;;;;;;21173056;28;20548;-50
2021/09/12 15:01:32;;;;;;;8.77;3.83;;;;;;;;;;21170313;28;20044;-52
2021/09/12 15:11:34;;;;;;;9.35;3.97;;;;;;;;;;21169642;28;20051;-50
2021/09/12 15:21:42;;;;;;;15.27;5.07;;;;;;;;;;21169219;28;20048;-52
2021/09/12 15:31:45;;;;;;;11.90;3.83;;;;;;;;;;21169022;28;20043;-49
2021/09/12 15:41:47;;;;;;;14.98;5.03;;;;;;;;;;21166861;28;20452;-52
2021/09/12 15:51:50;;;;;;;13.80;4.78;;;;;;;;;;21165904;28;20476;-51
2021/09/12 16:01:56;;;;;;;9.35;4.03;;;;;;;;;;21165231;28;20082;-51
2021/09/12 16:11:59;;;;;;;9.00;4.93;;;;;;;;;;21165195;28;20089;-51
2021/09/12 16:22:02;;;;;;;10.50;5.32;;;;;;;;;;21164632;28;20051;-50
2021/09/12 16:32:04;;;;;;;11.80;6.57;;;;;;;;;;21164407;28;20052;-50
2021/09/12 16:42:06;;;;;;;8.30;4.85;;;;;;;;;;21163428;28;20062;-50
2021/09/12 16:52:08;;;;;;;14.73;4.97;;;;;;;;;;21162876;28;20176;-53
2021/09/12 17:02:10;;;;;;;12.88;5.00;;;;;;;;;;21149849;28;20062;-57
2021/09/12 17:12:12;;;;;;;11.57;5.25;;;;;;;;;;21190782;28;20048;-51
2021/09/12 17:22:13;;;;;;;10.25;4.65;;;;;;;;;;21190121;28;20058;-50
2021/09/12 17:32:16;;;;;;;12.27;5.13;;;;;;;;;;21189253;28;20043;-53
2021/09/12 17:42:18;;;;;;;14.68;5.45;;;;;;;;;;21189536;28;20054;-50
2021/09/12 17:52:19;;;;;;;9.57;4.88;;;;;;;;;;21188528;28;20093;-51
2021/09/12 18:02:22;;;;;;;10.00;5.40;;;;;;;;;;21187954;28;20151;-50
2021/09/12 18:12:23;;;;;;;11.35;5.90;;;;;;;;;;21186824;27;20058;-61
2021/09/12 18:22:25;;;;;;;17.15;6.70;;;;;;;;;;21175051;28;20124;-61
2021/09/12 18:32:28;;;;;;;17.92;6.78;;;;;;;;;;21155419;28;20054;-50
2021/09/12 18:42:31;;;;;;;14.45;7.47;;;;;;;;;;21172769;28;20522;-50
2021/09/12 18:52:33;;;;;;;15.40;6.70;;;;;;;;;;21153922;28;20047;-51
2021/09/12 19:02:35;;;;;;;19.88;10.15;;;;;;;;;;21170612;28;20047;-48
2021/09/12 19:12:37;;;;;;;21.15;9.00;;;;;;;;;;21169942;28;20500;-49
2021/09/12 19:22:39;;;;;;;17.08;6.38;;;;;;;;;;21169727;28;20472;-50
2021/09/12 19:32:41;;;;;;;12.32;6.43;;;;;;;;;;21167605;28;20375;-49
2021/09/12 19:42:46;;;;;;;13.32;7.25;;;;;;;;;;21167602;28;20054;-51
2021/09/12 19:52:49;;;;;;;17.17;8.63;;;;;;;;;;21166766;28;20048;-50
2021/09/12 20:02:54;;;;;;;18.15;9.55;;;;;;;;;;21164918;28;20495;-57
2021/09/12 20:12:56;;;;;;;18.38;7.85;;;;;;;;;;21164977;28;20089;-50
2021/09/12 20:22:58;;;;;;;22.02;11.43;;;;;;;;;;21166226;28;20380;-51
2021/09/12 20:33:00;;;;;;;21.63;9.55;;;;;;;;;;21161496;28;20063;-50
2021/09/12 20:43:02;;;;;;;19.00;9.60;;;;;;;;;;21161650;28;20047;-50
2021/09/12 20:53:04;;;;;;;;;;;;;;;;;;21161258;28;20134;-52
2021/09/12 21:03:06;;;;;;;19.98;8.57;;;;;;;;;;21160246;28;19930;-50
2021/09/12 21:13:08;;;;;;;;;;;;;;;;;;21160865;28;20055;-50
2021/09/12 21:23:10;;;;;;;23.88;8.18;;;;;;;;;;21160403;28;19931;-50
2021/09/12 21:33:12;;;;;;;18.67;6.72;;;;;;;;;;21158943;28;20050;-50
2021/09/12 21:43:14;;;;;;;15.40;7.32;;;;;;;;;;21158919;28;20047;-53
2021/09/12 21:53:15;;;;;;;19.55;6.97;;;;;;;;;;21150485;28;20055;-51
2021/09/12 22:03:17;;;;;;;16.75;7.07;;;;;;;;;;21173324;28;20118;-49
2021/09/12 22:13:20;;;;;;;15.63;7.47;;;;;;;;;;21173533;28;20048;-50
2021/09/12 22:23:23;;;;;;;27.42;8.95;;;;;;;;;;21172503;28;20083;-49
2021/09/12 22:33:25;;;;;;;13.57;5.75;;;;;;;;;;21174031;28;20100;-49
2021/09/12 22:43:27;;;;;;;18.20;7.13;;;;;;;;;;21172831;28;20051;-49
2021/09/12 22:53:29;;;;;;;13.00;6.87;;;;;;;;;;21171872;28;20309;-49
2021/09/12 23:03:30;;;;;;;16.13;7.77;;;;;;;;;;21170662;28;20051;-50
2021/09/12 23:13:32;;;;;;;19.57;8.17;;;;;;;;;;21170973;28;20043;-49
2021/09/12 23:23:34;;;;;;;11.83;6.90;;;;;;;;;;21152424;28;20403;-49
2021/09/12 23:33:36;;;;;;;14.13;6.13;;;;;;;;;;21150934;28;20050;-49
2021/09/12 23:43:38;;;;;;;15.87;6.00;;;;;;;;;;21150605;28;20051;-50
2021/09/12 23:53:40;;;;;;;13.80;6.93;;;;;;;;;;21141446;28;20047;-52
